createdAt,value
2022-11-04T00:01:04.453Z,62.73
2022-11-04T00:06:02.088Z,63.09
2022-11-04T00:11:17.793Z,62.98
2022-11-04T00:16:36.050Z,62.44
2022-11-04T00:21:51.055Z,62.00
2022-11-04T00:27:06.122Z,61.72
2022-11-04T00:32:22.138Z,61.72
2022-11-04T00:37:19.334Z,61.71
2022-11-04T00:42:17.292Z,62.37
2022-11-04T00:47:15.243Z,62.95
2022-11-04T00:52:12.276Z,64.01
2022-11-04T00:57:09.957Z,63.79
2022-11-04T01:02:10.318Z,64.69
2022-11-04T01:07:08.328Z,65.85
2022-11-04T01:12:05.675Z,66.50
2022-11-04T01:17:02.632Z,66.46
2022-11-04T01:21:59.551Z,67.25
2022-11-04T01:26:57.213Z,67.79
2022-11-04T01:31:54.236Z,68.95
2022-11-04T01:36:51.294Z,69.37
2022-11-04T01:41:48.699Z,69.37
2022-11-04T01:46:49.866Z,68.63
2022-11-04T01:51:49.603Z,68.32
2022-11-04T01:56:48.362Z,68.65
2022-11-04T02:01:47.301Z,68.47
2022-11-04T02:06:45.726Z,67.54
2022-11-04T02:12:00.652Z,66.82
2022-11-04T02:17:05.919Z,66.14
2022-11-04T02:22:35.994Z,65.64
2022-11-04T02:28:01.295Z,64.76
2022-11-04T02:33:17.894Z,64.48
2022-11-04T02:38:26.551Z,65.03
2022-11-04T02:43:27.338Z,65.37
2022-11-04T02:48:36.481Z,65.49
2022-11-04T02:53:40.878Z,64.99
2022-11-04T02:58:44.389Z,64.50
2022-11-04T03:03:48.308Z,64.81
2022-11-04T03:08:48.554Z,65.51
2022-11-04T03:13:50.022Z,66.57
2022-11-04T03:18:59.195Z,66.88
2022-11-04T03:23:56.171Z,66.52
2022-11-04T03:29:07.203Z,66.32
2022-11-04T03:34:04.956Z,66.90
2022-11-04T03:39:02.260Z,66.26
2022-11-04T03:43:59.520Z,65.28
2022-11-04T03:49:10.573Z,64.67
2022-11-04T03:54:08.851Z,65.32
2022-11-04T03:59:23.748Z,65.14
2022-11-04T04:04:27.550Z,65.40
2022-11-04T04:09:31.534Z,66.32
2022-11-04T04:14:39.495Z,65.88
2022-11-04T04:19:37.597Z,64.92
2022-11-04T04:24:55.696Z,65.89
2022-11-04T04:29:53.994Z,68.56
2022-11-04T04:35:11.196Z,69.35
2022-11-04T04:40:33.862Z,70.14
2022-11-04T04:45:34.888Z,70.29
2022-11-04T04:50:41.027Z,71.08
2022-11-04T04:55:41.805Z,70.85
2022-11-04T05:00:39.677Z,71.47
2022-11-04T05:05:41.626Z,71.64
2022-11-04T05:10:39.630Z,72.20
2022-11-04T05:15:36.689Z,72.29
2022-11-04T05:20:37.882Z,72.32
2022-11-04T05:25:36.743Z,71.74
2022-11-04T05:30:35.940Z,71.17
2022-11-04T05:35:33.481Z,71.14
2022-11-04T05:40:30.535Z,71.17
2022-11-04T05:45:29.143Z,70.78
2022-11-04T05:50:27.797Z,70.30
2022-11-04T05:55:25.542Z,69.72
2022-11-04T06:00:25.827Z,69.14
2022-11-04T06:05:22.677Z,68.61
2022-11-04T06:10:26.345Z,68.57
2022-11-04T06:15:25.754Z,68.41
2022-11-04T06:20:22.741Z,68.41
2022-11-04T06:25:20.362Z,68.64
2022-11-04T06:30:19.405Z,68.63
2022-11-04T06:35:16.796Z,67.94
2022-11-04T06:40:14.982Z,67.44
2022-11-04T06:45:12.880Z,67.01
2022-11-04T06:50:11.049Z,66.75
2022-11-04T06:55:09.730Z,65.62
2022-11-04T07:00:08.401Z,65.17
2022-11-04T07:05:07.623Z,64.63
2022-11-04T07:10:05.714Z,63.05
2022-11-04T07:15:02.741Z,62.17
2022-11-04T07:19:59.773Z,62.10
2022-11-04T07:24:57.883Z,61.41
2022-11-04T07:29:54.835Z,61.30
2022-11-04T07:34:51.781Z,60.93
2022-11-04T07:39:48.864Z,60.43
2022-11-04T07:44:47.270Z,60.49
2022-11-04T07:49:44.949Z,59.52
2022-11-04T07:54:42.001Z,59.21
2022-11-04T07:59:39.158Z,58.62
2022-11-04T08:04:37.088Z,58.29
2022-11-04T08:09:35.928Z,57.85
2022-11-04T08:14:33.069Z,57.67
2022-11-04T08:19:30.804Z,57.10
2022-11-04T08:24:28.453Z,56.33
2022-11-04T08:29:25.719Z,55.16
2022-11-04T08:34:22.670Z,54.97
2022-11-04T08:39:22.227Z,52.58
2022-11-04T08:44:20.513Z,52.75
2022-11-04T08:49:21.046Z,52.83
2022-11-04T08:54:18.401Z,52.73
2022-11-04T08:59:15.470Z,53.04
2022-11-04T09:04:13.474Z,52.53
2022-11-04T09:09:14.401Z,52.43
2022-11-04T09:14:11.896Z,51.56
2022-11-04T09:19:09.537Z,51.39
2022-11-04T09:24:12.094Z,51.35
2022-11-04T09:29:09.874Z,50.70
2022-11-04T09:34:09.754Z,49.74
2022-11-04T09:39:07.681Z,49.28
2022-11-04T09:44:14.350Z,48.39
2022-11-04T09:49:13.526Z,48.05
2022-11-04T09:54:18.513Z,48.16
2022-11-04T09:59:26.222Z,48.15
2022-11-04T10:04:31.744Z,47.50
2022-11-04T10:09:46.981Z,47.87
2022-11-04T10:15:09.462Z,48.02
2022-11-04T10:20:23.220Z,46.84
2022-11-04T10:25:24.047Z,46.18
2022-11-04T10:30:23.254Z,46.21
2022-11-04T10:35:29.793Z,46.06
2022-11-04T10:40:31.878Z,46.31
2022-11-04T10:45:41.381Z,45.39
2022-11-04T10:50:42.866Z,44.54
2022-11-04T10:55:49.257Z,43.41
2022-11-04T11:00:46.243Z,43.39
2022-11-04T11:05:43.165Z,43.21
2022-11-04T11:11:09.066Z,42.05
2022-11-04T11:16:37.458Z,41.95
2022-11-04T11:22:11.309Z,41.42
2022-11-04T11:27:25.825Z,41.12
2022-11-04T11:33:36.353Z,40.79
2022-11-04T11:39:08.136Z,41.13
2022-11-04T11:44:33.220Z,40.83
2022-11-04T11:49:46.918Z,40.86
2022-11-04T11:55:03.987Z,40.53
2022-11-04T12:00:40.182Z,39.58
2022-11-04T12:11:18.113Z,40.42
2022-11-04T12:16:34.058Z,40.46
2022-11-04T12:21:49.656Z,40.37
2022-11-04T12:27:15.971Z,41.16
2022-11-04T12:32:28.079Z,41.82
2022-11-04T12:37:39.125Z,42.30
2022-11-04T12:42:45.249Z,42.76
2022-11-04T12:47:45.562Z,42.71
2022-11-04T12:53:14.683Z,42.61
2022-11-04T12:58:29.194Z,42.77
2022-11-04T13:03:34.860Z,43.34
2022-11-04T13:08:42.924Z,43.51
2022-11-04T13:13:40.741Z,43.46
2022-11-04T13:18:43.205Z,42.76
2022-11-04T13:23:46.086Z,42.90
2022-11-04T13:28:48.183Z,42.72
2022-11-04T13:33:53.997Z,42.29
2022-11-04T13:38:54.121Z,42.81
2022-11-04T13:43:53.492Z,42.95
2022-11-04T13:49:05.225Z,43.58
2022-11-04T13:54:06.380Z,43.51
2022-11-04T13:59:17.257Z,43.59
2022-11-04T14:04:31.102Z,44.08
2022-11-04T14:09:52.298Z,44.10
2022-11-04T14:14:54.480Z,44.36
2022-11-04T14:19:59.414Z,44.78
2022-11-04T14:24:58.398Z,45.21
2022-11-04T14:30:00.126Z,45.77
2022-11-04T14:35:02.872Z,46.22
2022-11-04T14:40:02.196Z,46.67
2022-11-04T14:45:00.891Z,47.11
2022-11-04T14:50:08.060Z,47.36
2022-11-04T14:55:08.466Z,47.76
2022-11-04T15:00:28.546Z,47.75
2022-11-04T15:05:28.541Z,47.86
2022-11-04T15:10:29.254Z,48.00
2022-11-04T15:15:29.670Z,48.44
2022-11-04T15:20:30.709Z,48.54
2022-11-04T15:25:28.692Z,48.40
2022-11-04T15:30:31.073Z,48.43
2022-11-04T15:35:31.931Z,48.38
2022-11-04T15:40:47.033Z,48.59
2022-11-04T15:45:51.753Z,48.51
2022-11-04T15:50:55.063Z,48.32
2022-11-04T15:55:55.912Z,48.49
2022-11-04T16:00:57.163Z,48.83
2022-11-04T16:06:04.055Z,49.10
2022-11-04T16:11:17.156Z,48.87
2022-11-04T16:16:23.527Z,48.94
2022-11-04T16:21:27.578Z,49.18
2022-11-04T16:26:34.440Z,49.19
2022-11-04T16:31:35.597Z,48.80
2022-11-04T16:36:38.094Z,48.77
2022-11-04T16:41:40.812Z,49.34
2022-11-04T16:46:41.196Z,49.72
2022-11-04T16:51:40.683Z,49.42
2022-11-04T16:56:57.095Z,49.53
2022-11-04T17:01:57.784Z,49.59
2022-11-04T17:06:56.542Z,49.72
2022-11-04T17:11:55.730Z,49.54
2022-11-04T17:16:52.858Z,49.67
2022-11-04T17:21:54.943Z,50.00
2022-11-04T17:26:56.890Z,50.53
2022-11-04T17:31:58.606Z,51.03
2022-11-04T17:36:56.908Z,51.30
2022-11-04T17:42:21.792Z,51.81
2022-11-04T17:47:22.045Z,51.94
2022-11-04T17:52:19.613Z,51.92
2022-11-04T17:57:18.156Z,52.22
2022-11-04T18:02:18.117Z,52.28
2022-11-04T18:07:18.625Z,52.31
2022-11-04T18:12:34.389Z,51.94
2022-11-04T18:17:32.075Z,51.75
2022-11-04T18:22:29.402Z,51.31
2022-11-04T18:27:27.417Z,50.87
2022-11-04T18:32:25.110Z,50.68
2022-11-04T18:37:22.731Z,50.62
2022-11-04T18:42:19.858Z,50.58
2022-11-04T18:47:20.127Z,50.06
2022-11-04T18:52:18.795Z,50.00
2022-11-04T18:57:16.059Z,49.39
2022-11-04T19:02:19.631Z,49.58
2022-11-04T19:07:21.372Z,49.54
2022-11-04T19:12:36.785Z,49.97
2022-11-04T19:17:36.919Z,50.27
2022-11-04T19:22:37.643Z,49.76
2022-11-04T19:27:37.341Z,49.44
2022-11-04T19:32:34.952Z,49.57
2022-11-04T19:37:35.926Z,49.15
2022-11-04T19:42:51.552Z,48.98
2022-11-04T19:47:48.667Z,48.96
2022-11-04T19:52:48.423Z,48.91
2022-11-04T19:57:48.767Z,48.88
2022-11-04T20:02:46.435Z,48.94
2022-11-04T20:07:43.721Z,48.87
2022-11-04T20:12:59.782Z,49.32
2022-11-04T20:17:56.934Z,49.28
2022-11-04T20:22:54.266Z,49.40
2022-11-04T20:27:57.012Z,49.71
2022-11-04T20:32:54.177Z,49.80
2022-11-04T20:37:51.355Z,50.13
2022-11-04T20:42:54.734Z,50.20
2022-11-04T20:47:53.313Z,50.61
2022-11-04T20:52:50.333Z,50.88
2022-11-04T20:57:50.221Z,51.00
2022-11-04T21:02:48.232Z,51.35
2022-11-04T21:07:47.297Z,51.66
2022-11-04T21:12:44.735Z,51.84
2022-11-04T21:17:45.162Z,52.14
2022-11-04T21:22:43.325Z,52.10
2022-11-04T21:27:40.516Z,52.05
2022-11-04T21:32:39.432Z,52.31
2022-11-04T21:37:37.281Z,52.14
2022-11-04T21:42:38.299Z,52.45
2022-11-04T21:47:37.737Z,52.51
2022-11-04T21:52:34.894Z,52.73
2022-11-04T21:57:32.189Z,52.86
2022-11-04T22:02:38.391Z,52.83
2022-11-04T22:07:56.378Z,52.98
2022-11-04T22:12:54.870Z,52.90
2022-11-04T22:17:53.022Z,53.21
2022-11-04T22:22:50.085Z,53.48
2022-11-04T22:27:50.381Z,53.44
2022-11-04T22:32:50.480Z,53.42
2022-11-04T22:37:48.746Z,53.58
2022-11-04T22:42:45.876Z,53.89
2022-11-04T22:47:43.345Z,54.14
2022-11-04T22:52:42.934Z,54.31
2022-11-04T22:57:44.093Z,54.35
2022-11-04T23:02:41.573Z,54.59
2022-11-04T23:07:38.842Z,55.00
2022-11-04T23:12:54.107Z,55.13
2022-11-04T23:18:10.422Z,55.48
2022-11-04T23:23:25.403Z,55.74
2022-11-04T23:28:40.643Z,56.00
2022-11-04T23:33:56.309Z,56.37
2022-11-04T23:38:52.992Z,56.40
2022-11-04T23:43:51.743Z,56.97
2022-11-04T23:49:07.910Z,57.43
2022-11-04T23:54:23.263Z,57.55
2022-11-04T23:59:38.695Z,57.88
